createdAt,value
2022-10-13T00:00:04.816Z,6.22
2022-10-13T00:02:31.221Z,6.68
2022-10-13T00:04:57.626Z,6.80
2022-10-13T00:07:24.067Z,5.25
2022-10-13T00:09:51.651Z,5.80
2022-10-13T00:12:18.279Z,6.10
2022-10-13T00:14:44.918Z,6.43
2022-10-13T00:17:11.355Z,5.78
2022-10-13T00:19:37.816Z,6.00
2022-10-13T00:22:04.233Z,5.85
2022-10-13T00:24:30.722Z,6.28
2022-10-13T00:26:57.155Z,6.25
2022-10-13T00:29:23.691Z,5.53
2022-10-13T00:31:50.153Z,6.25
2022-10-13T00:34:16.653Z,6.20
2022-10-13T00:36:43.061Z,5.70
2022-10-13T00:39:09.541Z,6.18
2022-10-13T00:41:36.124Z,5.43
2022-10-13T00:44:07.561Z,5.47
2022-10-13T00:46:36.013Z,5.25
2022-10-13T00:49:08.251Z,6.15
2022-10-13T00:51:41.078Z,5.93
2022-10-13T00:54:12.059Z,5.82
2022-10-13T00:56:38.917Z,5.32
2022-10-13T00:59:12.200Z,6.45
2022-10-13T01:01:38.670Z,5.93
2022-10-13T01:04:05.150Z,5.63
2022-10-13T01:06:31.825Z,5.13
2022-10-13T01:08:58.254Z,5.55
2022-10-13T01:11:42.275Z,5.85
2022-10-13T01:14:36.421Z,5.80
2022-10-13T01:17:36.699Z,6.60
2022-10-13T01:20:23.320Z,5.65
2022-10-13T01:23:02.026Z,5.68
2022-10-13T01:25:48.680Z,6.10
2022-10-13T01:28:31.494Z,5.38
2022-10-13T01:31:11.161Z,5.75
2022-10-13T01:33:45.784Z,5.38
2022-10-13T01:36:26.534Z,6.07
2022-10-13T01:39:05.122Z,6.25
2022-10-13T01:41:42.707Z,6.03
2022-10-13T01:44:16.139Z,5.45
2022-10-13T01:46:46.213Z,6.75
2022-10-13T01:49:16.436Z,6.28
2022-10-13T01:51:45.050Z,6.35
2022-10-13T01:54:11.573Z,5.63
2022-10-13T01:56:38.321Z,6.70
2022-10-13T01:59:11.599Z,5.95
2022-10-13T02:01:47.775Z,6.35
2022-10-13T02:04:25.961Z,6.07
2022-10-13T02:07:14.337Z,6.43
2022-10-13T02:09:57.076Z,6.40
2022-10-13T02:12:42.865Z,5.95
2022-10-13T02:15:13.430Z,6.00
2022-10-13T02:17:41.067Z,6.18
2022-10-13T02:20:08.808Z,5.47
2022-10-13T02:22:42.230Z,5.97
2022-10-13T02:25:12.162Z,5.82
2022-10-13T02:27:38.998Z,6.30
2022-10-13T02:30:05.893Z,5.88
2022-10-13T02:32:32.447Z,6.15
2022-10-13T02:34:58.876Z,6.43
2022-10-13T02:37:25.858Z,6.47
2022-10-13T02:39:52.591Z,6.28
2022-10-13T02:42:19.429Z,6.18
2022-10-13T02:44:46.083Z,6.55
2022-10-13T02:47:13.701Z,6.35
2022-10-13T02:49:40.129Z,5.35
2022-10-13T02:52:06.762Z,6.03
2022-10-13T02:54:33.215Z,5.32
2022-10-13T02:56:59.659Z,6.82
2022-10-13T02:59:26.038Z,6.22
2022-10-13T03:01:52.589Z,5.40
2022-10-13T03:04:19.016Z,6.10
2022-10-13T03:06:45.647Z,5.97
2022-10-13T03:09:12.069Z,5.93
2022-10-13T03:11:38.689Z,5.70
2022-10-13T03:14:05.130Z,5.88
2022-10-13T03:16:31.620Z,5.18
2022-10-13T03:18:58.192Z,6.10
2022-10-13T03:21:24.639Z,6.22
2022-10-13T03:23:51.430Z,6.65
2022-10-13T03:26:18.015Z,6.28
2022-10-13T03:28:49.031Z,5.57
2022-10-13T03:31:15.608Z,6.63
2022-10-13T03:33:42.097Z,6.32
2022-10-13T03:36:08.769Z,6.22
2022-10-13T03:38:35.991Z,5.20
2022-10-13T03:41:11.505Z,5.47
2022-10-13T03:43:38.589Z,6.75
2022-10-13T03:46:06.713Z,5.88
2022-10-13T03:48:35.181Z,5.88
2022-10-13T03:51:06.515Z,5.78
2022-10-13T03:53:33.448Z,6.18
2022-10-13T03:56:00.215Z,5.93
2022-10-13T03:58:29.001Z,5.30
2022-10-13T04:00:55.838Z,5.63
2022-10-13T04:03:22.381Z,5.60
2022-10-13T04:05:48.846Z,6.07
2022-10-13T04:08:15.407Z,5.57
2022-10-13T04:10:42.241Z,6.53
2022-10-13T04:13:08.726Z,6.45
2022-10-13T04:15:39.273Z,6.03
2022-10-13T04:18:06.963Z,6.72
2022-10-13T04:20:40.185Z,5.32
2022-10-13T04:23:07.677Z,6.05
2022-10-13T04:25:38.548Z,6.03
2022-10-13T04:28:06.601Z,6.55
2022-10-13T04:30:36.715Z,6.03
2022-10-13T04:33:06.351Z,5.22
2022-10-13T04:35:32.898Z,6.50
2022-10-13T04:37:59.362Z,6.07
2022-10-13T04:40:26.597Z,7.10
2022-10-13T04:42:53.257Z,5.22
2022-10-13T04:45:19.780Z,5.80
2022-10-13T04:47:46.188Z,6.07
2022-10-13T04:50:12.694Z,5.60
2022-10-13T04:52:39.114Z,5.53
2022-10-13T04:55:06.090Z,5.88
2022-10-13T04:57:32.560Z,6.72
2022-10-13T04:59:59.035Z,5.47
2022-10-13T05:02:25.521Z,6.47
2022-10-13T05:04:52.070Z,6.15
2022-10-13T05:07:18.922Z,5.70
2022-10-13T05:09:45.931Z,6.05
2022-10-13T05:12:12.382Z,6.18
2022-10-13T05:14:38.849Z,5.88
2022-10-13T05:17:05.289Z,6.18
2022-10-13T05:19:31.760Z,6.40
2022-10-13T05:21:58.307Z,5.95
2022-10-13T05:24:36.233Z,5.55
2022-10-13T05:27:09.583Z,6.70
2022-10-13T05:29:37.830Z,6.35
2022-10-13T05:32:04.622Z,5.82
2022-10-13T05:34:32.575Z,5.80
2022-10-13T05:37:00.205Z,6.32
2022-10-13T05:39:26.747Z,6.90
2022-10-13T05:41:53.375Z,6.35
2022-10-13T05:44:19.895Z,5.78
2022-10-13T05:46:49.754Z,5.82
2022-10-13T05:49:16.276Z,5.40
2022-10-13T05:51:55.506Z,5.50
2022-10-13T05:54:31.071Z,5.22
2022-10-13T05:57:00.744Z,6.88
2022-10-13T05:59:30.702Z,6.50
2022-10-13T06:01:57.426Z,5.97
2022-10-13T06:04:31.725Z,6.18
2022-10-13T06:06:58.345Z,5.82
2022-10-13T06:09:24.809Z,5.45
2022-10-13T06:11:51.242Z,7.00
2022-10-13T06:14:17.765Z,5.70
2022-10-13T06:16:44.229Z,5.75
2022-10-13T06:19:10.897Z,6.05
2022-10-13T06:21:37.384Z,5.88
2022-10-13T06:24:06.848Z,5.28
2022-10-13T06:26:33.406Z,5.22
2022-10-13T06:29:00.229Z,5.90
2022-10-13T06:31:27.631Z,6.30
2022-10-13T06:33:54.208Z,6.38
2022-10-13T06:36:20.854Z,5.40
2022-10-13T06:38:47.326Z,4.93
2022-10-13T06:41:14.321Z,6.47
2022-10-13T06:43:41.278Z,5.70
2022-10-13T06:46:08.238Z,5.38
2022-10-13T06:48:35.317Z,5.72
2022-10-13T06:51:04.110Z,5.40
2022-10-13T06:53:31.109Z,5.57
2022-10-13T06:56:02.583Z,6.72
2022-10-13T06:58:29.296Z,6.10
2022-10-13T07:00:55.971Z,6.00
2022-10-13T07:03:23.941Z,6.32
2022-10-13T07:05:50.454Z,6.30
2022-10-13T07:08:17.122Z,5.90
2022-10-13T07:10:44.009Z,5.88
2022-10-13T07:13:10.664Z,5.95
2022-10-13T07:15:39.655Z,5.50
2022-10-13T07:18:06.875Z,5.35
2022-10-13T07:20:33.761Z,5.55
2022-10-13T07:23:00.322Z,5.82
2022-10-13T07:25:27.128Z,5.72
2022-10-13T07:27:53.589Z,5.03
2022-10-13T07:30:20.201Z,5.28
2022-10-13T07:32:47.662Z,5.90
2022-10-13T07:35:15.271Z,5.32
2022-10-13T07:37:41.906Z,6.13
2022-10-13T07:40:09.043Z,5.10
2022-10-13T07:42:35.957Z,5.75
2022-10-13T07:45:02.502Z,6.55
2022-10-13T07:47:29.519Z,5.80
2022-10-13T07:49:55.966Z,6.30
2022-10-13T07:52:22.947Z,5.68
2022-10-13T07:54:50.725Z,6.47
2022-10-13T07:57:17.594Z,6.05
2022-10-13T07:59:44.185Z,5.43
2022-10-13T08:02:10.658Z,5.55
2022-10-13T08:04:37.679Z,5.18
2022-10-13T08:07:05.905Z,5.93
2022-10-13T08:09:33.095Z,5.78
2022-10-13T08:12:01.817Z,5.78
2022-10-13T08:14:29.667Z,5.32
2022-10-13T08:16:57.402Z,5.70
2022-10-13T08:19:26.414Z,5.45
2022-10-13T08:21:58.088Z,5.30
2022-10-13T08:24:26.265Z,5.75
2022-10-13T08:26:52.909Z,5.63
2022-10-13T08:29:22.350Z,5.90
2022-10-13T08:34:23.453Z,5.43
2022-10-13T08:36:53.504Z,6.45
2022-10-13T08:39:21.686Z,6.07
2022-10-13T08:41:48.367Z,5.97
2022-10-13T08:47:27.677Z,5.95
2022-10-13T08:50:00.352Z,5.90
2022-10-13T08:52:41.965Z,5.85
2022-10-13T08:55:18.103Z,7.13
2022-10-13T08:57:44.701Z,6.43
2022-10-13T09:00:13.144Z,6.03
2022-10-13T09:02:42.218Z,5.80
2022-10-13T09:05:16.392Z,5.80
2022-10-13T09:07:46.022Z,6.03
2022-10-13T09:10:14.563Z,5.97
2022-10-13T09:12:41.142Z,5.45
2022-10-13T09:15:10.472Z,5.70
2022-10-13T09:17:39.522Z,6.53
2022-10-13T09:20:21.756Z,5.95
2022-10-13T09:23:21.435Z,6.00
2022-10-13T09:25:50.801Z,5.75
2022-10-13T09:28:23.235Z,5.45
2022-10-13T09:31:03.579Z,6.10
2022-10-13T09:33:35.051Z,6.00
2022-10-13T09:36:02.307Z,4.85
2022-10-13T09:38:30.280Z,5.82
2022-10-13T09:41:03.844Z,5.50
2022-10-13T09:43:34.709Z,6.15
2022-10-13T09:46:04.612Z,5.05
2022-10-13T09:48:36.186Z,4.90
2022-10-13T09:51:02.906Z,5.30
2022-10-13T09:53:40.921Z,5.47
2022-10-13T09:56:21.457Z,5.10
2022-10-13T09:59:10.934Z,5.88
2022-10-13T10:01:43.149Z,5.05
2022-10-13T10:04:33.912Z,4.93
2022-10-13T10:07:05.815Z,4.65
2022-10-13T10:09:40.161Z,4.90
2022-10-13T10:12:12.144Z,5.63
2022-10-13T10:14:39.275Z,5.35
2022-10-13T10:17:27.130Z,5.60
2022-10-13T10:19:59.513Z,4.93
2022-10-13T10:22:37.815Z,4.88
2022-10-13T10:25:26.007Z,5.20
2022-10-13T10:28:30.306Z,5.47
2022-10-13T10:31:10.742Z,5.55
2022-10-13T10:34:07.694Z,4.95
2022-10-13T10:36:53.180Z,5.05
2022-10-13T10:39:51.424Z,5.60
2022-10-13T10:42:39.301Z,5.55
2022-10-13T10:45:16.737Z,5.20
2022-10-13T10:47:47.440Z,4.85
2022-10-13T10:50:17.161Z,5.53
2022-10-13T10:53:01.485Z,5.25
2022-10-13T10:55:58.287Z,4.70
2022-10-13T10:58:39.762Z,5.45
2022-10-13T11:01:24.118Z,6.07
2022-10-13T11:04:05.821Z,4.63
2022-10-13T11:06:35.906Z,4.65
2022-10-13T11:09:05.245Z,5.20
2022-10-13T11:11:37.814Z,5.57
2022-10-13T11:14:07.751Z,4.93
2022-10-13T11:16:59.178Z,5.80
2022-10-13T11:19:34.707Z,5.55
2022-10-13T11:22:01.482Z,5.60
2022-10-13T11:24:33.875Z,4.93
2022-10-13T11:27:11.889Z,5.07
2022-10-13T11:29:44.937Z,4.88
2022-10-13T11:32:27.012Z,5.38
2022-10-13T11:35:06.620Z,5.18
2022-10-13T11:38:06.073Z,5.60
2022-10-13T11:40:58.283Z,4.80
2022-10-13T11:43:37.369Z,5.30
2022-10-13T11:46:48.933Z,4.85
2022-10-13T11:49:28.716Z,4.75
2022-10-13T11:52:06.600Z,5.00
2022-10-13T11:54:36.040Z,5.03
2022-10-13T11:57:04.573Z,4.10
2022-10-13T11:59:32.569Z,3.60
2022-10-13T12:02:19.627Z,3.33
2022-10-13T12:07:31.864Z,3.30
2022-10-13T12:10:00.480Z,3.58
2022-10-13T12:12:27.447Z,3.30
2022-10-13T12:14:57.777Z,2.88
2022-10-13T12:17:26.885Z,2.88
2022-10-13T12:20:00.465Z,2.97
2022-10-13T12:22:28.258Z,3.35
2022-10-13T12:25:04.179Z,3.35
2022-10-13T12:27:32.895Z,3.00
2022-10-13T12:30:02.989Z,3.47
2022-10-13T12:32:32.177Z,3.90
2022-10-13T12:35:23.935Z,4.20
2022-10-13T12:37:51.812Z,3.85
2022-10-13T12:40:18.974Z,3.65
2022-10-13T12:42:46.304Z,3.35
2022-10-13T12:45:36.196Z,3.80
2022-10-13T12:48:02.724Z,3.60
2022-10-13T12:50:36.740Z,3.63
2022-10-13T12:53:08.356Z,3.38
2022-10-13T12:55:36.865Z,3.13
2022-10-13T12:58:03.772Z,3.03
2022-10-13T13:00:30.954Z,2.80
2022-10-13T13:03:01.932Z,2.88
2022-10-13T13:05:46.780Z,2.97
2022-10-13T13:08:27.130Z,2.63
2022-10-13T13:10:59.146Z,2.92
2022-10-13T13:13:26.255Z,2.85
2022-10-13T13:15:53.808Z,2.85
2022-10-13T13:18:28.785Z,2.67
2022-10-13T13:23:23.621Z,2.67
2022-10-13T13:26:06.138Z,2.88
2022-10-13T13:28:33.177Z,2.92
2022-10-13T13:30:59.882Z,2.65
2022-10-13T13:33:26.577Z,2.63
2022-10-13T13:35:53.867Z,2.58
2022-10-13T13:38:20.566Z,3.10
2022-10-13T13:40:47.055Z,3.00
2022-10-13T13:43:13.487Z,2.97
2022-10-13T13:45:40.100Z,3.20
2022-10-13T13:48:06.735Z,3.40
2022-10-13T13:50:35.582Z,2.88
2022-10-13T13:55:30.164Z,3.40
2022-10-13T13:57:57.657Z,3.08
2022-10-13T14:00:24.409Z,3.20
2022-10-13T14:02:51.276Z,3.60
2022-10-13T14:05:18.130Z,3.58
2022-10-13T14:07:44.702Z,3.70
2022-10-13T14:10:12.379Z,4.13
2022-10-13T14:12:38.923Z,3.67
2022-10-13T14:15:06.047Z,3.60
2022-10-13T14:17:32.549Z,4.03
2022-10-13T14:19:59.087Z,3.55
2022-10-13T14:22:26.361Z,4.57
2022-10-13T14:24:53.163Z,4.10
2022-10-13T14:27:19.662Z,4.15
2022-10-13T14:29:46.181Z,3.72
2022-10-13T14:32:12.745Z,3.80
2022-10-13T14:34:39.306Z,4.13
2022-10-13T14:37:05.994Z,3.95
2022-10-13T14:39:32.975Z,4.32
2022-10-13T14:41:59.655Z,4.18
2022-10-13T14:44:26.232Z,4.60
2022-10-13T14:46:52.825Z,4.93
2022-10-13T14:49:19.345Z,4.85
2022-10-13T14:51:45.803Z,4.65
2022-10-13T14:54:12.333Z,4.63
2022-10-13T14:56:39.115Z,4.38
2022-10-13T14:59:07.306Z,4.60
2022-10-13T15:01:34.583Z,4.25
2022-10-13T15:04:02.035Z,3.95
2022-10-13T15:06:29.433Z,4.13
2022-10-13T15:08:56.517Z,3.83
2022-10-13T15:11:24.379Z,4.28
2022-10-13T15:13:51.262Z,3.92
2022-10-13T15:16:29.177Z,4.50
2022-10-13T15:18:56.496Z,4.40
2022-10-13T15:21:23.991Z,4.50
2022-10-13T15:23:51.082Z,4.90
2022-10-13T15:26:19.055Z,4.85
2022-10-13T15:28:48.637Z,4.82
2022-10-13T15:31:17.117Z,4.65
2022-10-13T15:33:51.583Z,4.25
2022-10-13T15:36:19.635Z,4.80
2022-10-13T15:38:46.397Z,5.70
2022-10-13T15:41:13.324Z,4.82
2022-10-13T15:43:39.992Z,5.22
2022-10-13T15:46:10.461Z,4.68
2022-10-13T15:48:37.125Z,5.55
2022-10-13T15:51:13.908Z,5.57
2022-10-13T15:53:40.456Z,5.72
2022-10-13T15:56:07.963Z,4.70
2022-10-13T15:58:35.901Z,5.22
2022-10-13T16:01:07.818Z,4.78
2022-10-13T16:03:34.338Z,5.38
2022-10-13T16:06:07.702Z,4.93
2022-10-13T16:08:39.643Z,5.68
2022-10-13T16:11:11.698Z,5.78
2022-10-13T16:13:39.199Z,5.78
2022-10-13T16:16:06.088Z,5.18
2022-10-13T16:18:35.221Z,6.00
2022-10-13T16:21:08.354Z,5.85
2022-10-13T16:23:35.532Z,6.82
2022-10-13T16:26:03.608Z,5.90
2022-10-13T16:28:30.246Z,6.28
2022-10-13T16:30:56.734Z,5.70
2022-10-13T16:33:23.234Z,5.45
2022-10-13T16:35:49.906Z,7.13
2022-10-13T16:38:16.387Z,5.82
2022-10-13T16:40:42.983Z,5.30
2022-10-13T16:43:09.633Z,4.07
2022-10-13T16:45:58.628Z,4.50
2022-10-13T16:48:22.732Z,4.45
2022-10-13T16:50:49.246Z,4.07
2022-10-13T16:53:15.975Z,3.88
2022-10-13T16:55:42.815Z,3.60
2022-10-13T16:58:09.939Z,4.18
2022-10-13T17:00:37.599Z,5.68
2022-10-13T17:03:05.199Z,6.60
2022-10-13T17:05:32.093Z,5.32
2022-10-13T17:07:58.553Z,5.43
2022-10-13T17:10:25.287Z,5.53
2022-10-13T17:12:51.958Z,4.85
2022-10-13T17:15:18.720Z,4.63
2022-10-13T17:17:45.304Z,3.83
2022-10-13T17:20:13.133Z,4.55
2022-10-13T17:22:40.623Z,4.40
2022-10-13T17:25:27.573Z,4.95
2022-10-13T17:27:54.034Z,4.53
2022-10-13T17:30:20.511Z,4.45
2022-10-13T17:32:46.965Z,5.18
2022-10-13T17:35:18.147Z,4.80
2022-10-13T17:37:45.173Z,5.35
2022-10-13T17:40:12.183Z,5.10
2022-10-13T17:42:39.222Z,4.72
2022-10-13T17:45:06.502Z,4.85
2022-10-13T17:47:33.364Z,5.30
2022-10-13T17:50:00.423Z,5.40
2022-10-13T17:52:29.298Z,5.18
2022-10-13T17:54:57.567Z,4.93
2022-10-13T17:57:31.060Z,5.72
2022-10-13T17:59:59.181Z,5.10
2022-10-13T18:02:26.383Z,5.00
2022-10-13T18:04:54.287Z,5.07
2022-10-13T18:07:21.147Z,5.03
2022-10-13T18:09:52.481Z,4.97
2022-10-13T18:12:22.359Z,6.65
2022-10-13T18:14:48.930Z,5.70
2022-10-13T18:17:15.440Z,5.07
2022-10-13T18:19:42.870Z,5.85
2022-10-13T18:22:09.666Z,9.10
2022-10-13T18:24:36.159Z,6.47
2022-10-13T18:27:02.672Z,5.07
2022-10-13T18:29:29.226Z,5.10
2022-10-13T18:31:58.492Z,5.95
2022-10-13T18:34:25.092Z,5.38
2022-10-13T18:36:55.105Z,5.93
2022-10-13T18:39:25.193Z,5.15
2022-10-13T18:41:53.180Z,5.38
2022-10-13T18:44:22.235Z,5.20
2022-10-13T18:49:19.125Z,4.97
2022-10-13T18:51:46.675Z,5.38
2022-10-13T18:54:13.252Z,5.00
2022-10-13T18:56:39.935Z,5.40
2022-10-13T18:59:08.296Z,5.60
2022-10-13T19:01:37.453Z,4.95
2022-10-13T19:04:05.463Z,5.53
2022-10-13T19:06:32.973Z,6.20
2022-10-13T19:09:05.048Z,5.50
2022-10-13T19:11:33.006Z,4.97
2022-10-13T19:14:01.536Z,6.15
2022-10-13T19:16:30.763Z,6.00
2022-10-13T19:18:58.116Z,5.75
2022-10-13T19:21:25.014Z,6.55
2022-10-13T19:23:51.765Z,7.43
2022-10-13T19:26:24.172Z,7.93
2022-10-13T19:28:59.655Z,6.85
2022-10-13T19:31:28.591Z,7.20
2022-10-13T19:33:55.459Z,7.07
2022-10-13T19:36:32.509Z,9.25
2022-10-13T19:39:01.467Z,10.65
2022-10-13T19:43:55.998Z,6.97
2022-10-13T19:46:23.030Z,6.57
2022-10-13T19:48:49.815Z,6.35
2022-10-13T19:51:16.515Z,6.70
2022-10-13T19:53:43.558Z,6.43
2022-10-13T19:56:31.463Z,6.20
2022-10-13T19:58:59.470Z,6.10
2022-10-13T20:01:26.776Z,6.38
2022-10-13T20:03:54.313Z,5.55
2022-10-13T20:06:21.931Z,6.53
2022-10-13T20:08:49.231Z,6.88
2022-10-13T20:11:23.454Z,6.50
2022-10-13T20:13:51.359Z,6.38
2022-10-13T20:16:21.073Z,6.70
2022-10-13T20:18:56.120Z,6.57
2022-10-13T20:21:23.726Z,6.80
2022-10-13T20:23:50.915Z,6.43
2022-10-13T20:26:18.356Z,5.70
2022-10-13T20:28:46.678Z,6.38
2022-10-13T20:31:15.939Z,6.18
2022-10-13T20:33:43.958Z,4.57
2022-10-13T20:36:12.658Z,5.63
2022-10-13T20:38:39.651Z,5.90
2022-10-13T20:41:09.683Z,5.88
2022-10-13T20:43:37.167Z,5.57
2022-10-13T20:46:06.293Z,5.03
2022-10-13T20:48:57.864Z,3.90
2022-10-13T20:51:23.605Z,5.05
2022-10-13T20:53:50.547Z,4.60
2022-10-13T20:56:26.327Z,3.90
2022-10-13T20:58:53.944Z,4.95
2022-10-13T21:01:22.433Z,4.57
2022-10-13T21:03:53.857Z,4.63
2022-10-13T21:06:21.658Z,4.90
2022-10-13T21:08:48.515Z,4.00
2022-10-13T21:11:16.899Z,4.38
2022-10-13T21:13:44.621Z,4.97
2022-10-13T21:16:17.295Z,4.28
2022-10-13T21:18:49.026Z,4.40
2022-10-13T21:21:38.039Z,4.00
2022-10-13T21:24:07.168Z,4.50
2022-10-13T21:26:34.887Z,4.70
2022-10-13T21:29:02.164Z,4.78
2022-10-13T21:31:29.402Z,3.60
2022-10-13T21:33:57.336Z,4.70
2022-10-13T21:36:30.113Z,3.80
2022-10-13T21:39:00.768Z,4.28
2022-10-13T21:41:29.298Z,4.55
2022-10-13T21:43:57.031Z,5.30
2022-10-13T21:46:27.355Z,4.30
2022-10-13T21:48:59.548Z,3.75
2022-10-13T21:51:37.215Z,3.65
2022-10-13T21:54:07.063Z,4.28
2022-10-13T21:56:33.958Z,4.57
2022-10-13T21:59:01.380Z,4.57
2022-10-13T22:01:28.385Z,4.57
2022-10-13T22:03:57.245Z,4.00
2022-10-13T22:06:24.496Z,4.10
2022-10-13T22:08:52.859Z,4.55
2022-10-13T22:11:20.318Z,4.53
2022-10-13T22:13:46.846Z,4.00
2022-10-13T22:16:17.479Z,4.32
2022-10-13T22:18:44.748Z,4.47
2022-10-13T22:21:15.409Z,3.65
2022-10-13T22:23:42.099Z,4.40
2022-10-13T22:26:09.143Z,4.38
2022-10-13T22:28:37.426Z,4.07
2022-10-13T22:31:10.311Z,4.57
2022-10-13T22:33:38.465Z,4.40
2022-10-13T22:36:15.985Z,4.20
2022-10-13T22:38:43.495Z,4.28
2022-10-13T22:41:10.644Z,4.22
2022-10-13T22:43:37.515Z,4.07
2022-10-13T22:46:04.707Z,4.18
2022-10-13T22:48:36.965Z,4.45
2022-10-13T22:51:07.431Z,4.63
2022-10-13T22:53:34.452Z,3.95
2022-10-13T22:56:06.102Z,4.60
2022-10-13T22:58:32.658Z,4.65
2022-10-13T23:01:05.844Z,4.10
2022-10-13T23:03:32.607Z,4.88
2022-10-13T23:05:59.268Z,4.75
2022-10-13T23:08:26.704Z,5.03
2022-10-13T23:10:55.105Z,5.03
2022-10-13T23:13:23.654Z,4.40
2022-10-13T23:15:50.299Z,5.03
2022-10-13T23:18:17.277Z,5.05
2022-10-13T23:20:44.882Z,5.25
2022-10-13T23:23:11.415Z,5.35
2022-10-13T23:25:38.191Z,5.00
2022-10-13T23:28:04.783Z,4.68
2022-10-13T23:30:33.628Z,5.32
2022-10-13T23:33:00.110Z,4.63
2022-10-13T23:35:26.535Z,4.80
2022-10-13T23:37:53.021Z,4.78
2022-10-13T23:40:19.717Z,4.45
2022-10-13T23:42:46.197Z,5.05
2022-10-13T23:45:12.608Z,5.28
2022-10-13T23:47:39.092Z,5.35
2022-10-13T23:50:06.060Z,4.68
2022-10-13T23:52:32.688Z,4.68
2022-10-13T23:54:59.131Z,5.38
2022-10-13T23:57:25.576Z,4.90
2022-10-13T23:59:51.974Z,5.00
